<?xml version="1.0" encoding="UTF-8" standalone="no" ?>
<gpx xmlns="http://www.topografix.com/GPX/1/1" xmlns:xsi="http://www.w3.org/2001/XMLSchema-instance" xsi:schemaLocation="http://www.topografix.com/GPX/1/1 http://www.topografix.com/GPX/1/1/gpx.xsd" version="1.1" creator="VisuGPX - https://www.visugpx.com">
  <metadata>
    <name>Le Tholy Haut du Tot</name>
    <desc><![CDATA[Randonnée en boucle de 19 km au départ du Tholy ]]></desc>
  </metadata>
  <trk>
    <name><![CDATA[20171226230022-rS8jd]]></name>
    <trkseg>
      <trkpt lat="48.0825" lon="6.74329">
        <ele>597</ele>
        <time>2017-12-26T22:32:09Z</time>
      </trkpt>
      <trkpt lat="48.08238" lon="6.74323">
        <ele>590</ele>
        <time>2017-12-26T22:33:09Z</time>
      </trkpt>
      <trkpt lat="48.08214" lon="6.74333">
        <ele>586</ele>
        <time>2017-12-26T22:34:09Z</time>
      </trkpt>
      <trkpt lat="48.08189" lon="6.74335">
        <ele>578</ele>
        <time>2017-12-26T22:35:09Z</time>
      </trkpt>
      <trkpt lat="48.0816" lon="6.74326">
        <ele>569</ele>
        <time>2017-12-26T22:36:09Z</time>
      </trkpt>
      <trkpt lat="48.08138" lon="6.743">
        <ele>564</ele>
        <time>2017-12-26T22:37:09Z</time>
      </trkpt>
      <trkpt lat="48.08114" lon="6.74285">
        <ele>560</ele>
        <time>2017-12-26T22:38:09Z</time>
      </trkpt>
      <trkpt lat="48.08089" lon="6.74289">
        <ele>558</ele>
        <time>2017-12-26T22:39:09Z</time>
      </trkpt>
      <trkpt lat="48.08079" lon="6.74347">
        <ele>546</ele>
        <time>2017-12-26T22:40:09Z</time>
      </trkpt>
      <trkpt lat="48.08063" lon="6.74361">
        <ele>543</ele>
        <time>2017-12-26T22:41:09Z</time>
      </trkpt>
      <trkpt lat="48.08024" lon="6.74382">
        <ele>540</ele>
        <time>2017-12-26T22:42:09Z</time>
      </trkpt>
      <trkpt lat="48.08015" lon="6.74368">
        <ele>539</ele>
        <time>2017-12-26T22:43:09Z</time>
      </trkpt>
      <trkpt lat="48.08" lon="6.74359">
        <ele>533</ele>
        <time>2017-12-26T22:44:09Z</time>
      </trkpt>
      <trkpt lat="48.07943" lon="6.744">
        <ele>531</ele>
        <time>2017-12-26T22:45:09Z</time>
      </trkpt>
      <trkpt lat="48.0789" lon="6.74407">
        <ele>531</ele>
        <time>2017-12-26T22:46:09Z</time>
      </trkpt>
      <trkpt lat="48.07858" lon="6.74428">
        <ele>539</ele>
        <time>2017-12-26T22:47:09Z</time>
      </trkpt>
      <trkpt lat="48.07836" lon="6.74439">
        <ele>540</ele>
        <time>2017-12-26T22:48:09Z</time>
      </trkpt>
      <trkpt lat="48.07796" lon="6.7439">
        <ele>536</ele>
        <time>2017-12-26T22:49:09Z</time>
      </trkpt>
      <trkpt lat="48.07779" lon="6.74353">
        <ele>534</ele>
        <time>2017-12-26T22:50:09Z</time>
      </trkpt>
      <trkpt lat="48.07758" lon="6.74343">
        <ele>532</ele>
        <time>2017-12-26T22:51:09Z</time>
      </trkpt>
      <trkpt lat="48.07678" lon="6.74361">
        <ele>533</ele>
        <time>2017-12-26T22:52:09Z</time>
      </trkpt>
      <trkpt lat="48.07622" lon="6.74336">
        <ele>530</ele>
        <time>2017-12-26T22:53:09Z</time>
      </trkpt>
      <trkpt lat="48.07428" lon="6.74432">
        <ele>540</ele>
        <time>2017-12-26T22:54:09Z</time>
      </trkpt>
      <trkpt lat="48.07371" lon="6.74479">
        <ele>548</ele>
        <time>2017-12-26T22:55:09Z</time>
      </trkpt>
      <trkpt lat="48.07269" lon="6.7449">
        <ele>557</ele>
        <time>2017-12-26T22:56:09Z</time>
      </trkpt>
      <trkpt lat="48.07168" lon="6.74422">
        <ele>550</ele>
        <time>2017-12-26T22:57:09Z</time>
      </trkpt>
      <trkpt lat="48.06962" lon="6.74283">
        <ele>547</ele>
        <time>2017-12-26T22:58:09Z</time>
      </trkpt>
      <trkpt lat="48.06879" lon="6.74106">
        <ele>544</ele>
        <time>2017-12-26T22:59:09Z</time>
      </trkpt>
      <trkpt lat="48.06816" lon="6.74038">
        <ele>546</ele>
        <time>2017-12-26T23:00:09Z</time>
      </trkpt>
      <trkpt lat="48.0676" lon="6.73987">
        <ele>540</ele>
        <time>2017-12-26T23:01:09Z</time>
      </trkpt>
      <trkpt lat="48.06686" lon="6.73954">
        <ele>545</ele>
        <time>2017-12-26T23:02:09Z</time>
      </trkpt>
      <trkpt lat="48.06673" lon="6.73915">
        <ele>536</ele>
        <time>2017-12-26T23:03:09Z</time>
      </trkpt>
      <trkpt lat="48.06632" lon="6.7385">
        <ele>534</ele>
        <time>2017-12-26T23:04:09Z</time>
      </trkpt>
      <trkpt lat="48.06586" lon="6.73698">
        <ele>517</ele>
        <time>2017-12-26T23:05:09Z</time>
      </trkpt>
      <trkpt lat="48.06562" lon="6.73692">
        <ele>523</ele>
        <time>2017-12-26T23:06:09Z</time>
      </trkpt>
      <trkpt lat="48.06542" lon="6.73723">
        <ele>525</ele>
        <time>2017-12-26T23:07:09Z</time>
      </trkpt>
      <trkpt lat="48.06541" lon="6.73767">
        <ele>531</ele>
        <time>2017-12-26T23:08:09Z</time>
      </trkpt>
      <trkpt lat="48.06501" lon="6.7383">
        <ele>541</ele>
        <time>2017-12-26T23:09:09Z</time>
      </trkpt>
      <trkpt lat="48.06451" lon="6.73899">
        <ele>558</ele>
        <time>2017-12-26T23:10:09Z</time>
      </trkpt>
      <trkpt lat="48.06279" lon="6.73713">
        <ele>569</ele>
        <time>2017-12-26T23:11:09Z</time>
      </trkpt>
      <trkpt lat="48.06226" lon="6.73743">
        <ele>580</ele>
        <time>2017-12-26T23:12:09Z</time>
      </trkpt>
      <trkpt lat="48.06188" lon="6.73781">
        <ele>580</ele>
        <time>2017-12-26T23:13:09Z</time>
      </trkpt>
      <trkpt lat="48.06121" lon="6.73895">
        <ele>592</ele>
        <time>2017-12-26T23:14:09Z</time>
      </trkpt>
      <trkpt lat="48.0608" lon="6.73992">
        <ele>596</ele>
        <time>2017-12-26T23:15:09Z</time>
      </trkpt>
      <trkpt lat="48.06051" lon="6.74069">
        <ele>595</ele>
        <time>2017-12-26T23:16:09Z</time>
      </trkpt>
      <trkpt lat="48.06034" lon="6.74112">
        <ele>591</ele>
        <time>2017-12-26T23:17:09Z</time>
      </trkpt>
      <trkpt lat="48.06011" lon="6.74187">
        <ele>592</ele>
        <time>2017-12-26T23:18:09Z</time>
      </trkpt>
      <trkpt lat="48.06001" lon="6.74218">
        <ele>591</ele>
        <time>2017-12-26T23:19:09Z</time>
      </trkpt>
      <trkpt lat="48.05988" lon="6.74264">
        <ele>597</ele>
        <time>2017-12-26T23:20:09Z</time>
      </trkpt>
      <trkpt lat="48.05956" lon="6.74321">
        <ele>599</ele>
        <time>2017-12-26T23:21:09Z</time>
      </trkpt>
      <trkpt lat="48.05945" lon="6.74393">
        <ele>600</ele>
        <time>2017-12-26T23:22:09Z</time>
      </trkpt>
      <trkpt lat="48.05909" lon="6.74423">
        <ele>605</ele>
        <time>2017-12-26T23:23:09Z</time>
      </trkpt>
      <trkpt lat="48.05892" lon="6.74467">
        <ele>611</ele>
        <time>2017-12-26T23:24:09Z</time>
      </trkpt>
      <trkpt lat="48.05896" lon="6.74513">
        <ele>614</ele>
        <time>2017-12-26T23:25:09Z</time>
      </trkpt>
      <trkpt lat="48.05911" lon="6.74617">
        <ele>619</ele>
        <time>2017-12-26T23:26:09Z</time>
      </trkpt>
      <trkpt lat="48.05843" lon="6.74759">
        <ele>637</ele>
        <time>2017-12-26T23:27:09Z</time>
      </trkpt>
      <trkpt lat="48.05829" lon="6.74819">
        <ele>654</ele>
        <time>2017-12-26T23:28:09Z</time>
      </trkpt>
      <trkpt lat="48.05807" lon="6.74823">
        <ele>657</ele>
        <time>2017-12-26T23:29:09Z</time>
      </trkpt>
      <trkpt lat="48.05777" lon="6.74815">
        <ele>663</ele>
        <time>2017-12-26T23:30:09Z</time>
      </trkpt>
      <trkpt lat="48.0575" lon="6.74788">
        <ele>677</ele>
        <time>2017-12-26T23:31:09Z</time>
      </trkpt>
      <trkpt lat="48.05744" lon="6.74738">
        <ele>662</ele>
        <time>2017-12-26T23:32:09Z</time>
      </trkpt>
      <trkpt lat="48.05703" lon="6.74712">
        <ele>664</ele>
        <time>2017-12-26T23:33:09Z</time>
      </trkpt>
      <trkpt lat="48.05682" lon="6.74705">
        <ele>666</ele>
        <time>2017-12-26T23:34:09Z</time>
      </trkpt>
      <trkpt lat="48.05607" lon="6.74636">
        <ele>667</ele>
        <time>2017-12-26T23:35:09Z</time>
      </trkpt>
      <trkpt lat="48.05547" lon="6.74535">
        <ele>668</ele>
        <time>2017-12-26T23:36:09Z</time>
      </trkpt>
      <trkpt lat="48.05375" lon="6.74432">
        <ele>693</ele>
        <time>2017-12-26T23:37:09Z</time>
      </trkpt>
      <trkpt lat="48.05349" lon="6.74421">
        <ele>697</ele>
        <time>2017-12-26T23:38:09Z</time>
      </trkpt>
      <trkpt lat="48.05287" lon="6.74404">
        <ele>706</ele>
        <time>2017-12-26T23:39:09Z</time>
      </trkpt>
      <trkpt lat="48.0524" lon="6.74404">
        <ele>712</ele>
        <time>2017-12-26T23:40:09Z</time>
      </trkpt>
      <trkpt lat="48.05174" lon="6.74421">
        <ele>719</ele>
        <time>2017-12-26T23:41:09Z</time>
      </trkpt>
      <trkpt lat="48.05112" lon="6.74478">
        <ele>728</ele>
        <time>2017-12-26T23:42:09Z</time>
      </trkpt>
      <trkpt lat="48.0505" lon="6.74539">
        <ele>737</ele>
        <time>2017-12-26T23:43:09Z</time>
      </trkpt>
      <trkpt lat="48.05038" lon="6.74611">
        <ele>748</ele>
        <time>2017-12-26T23:44:09Z</time>
      </trkpt>
      <trkpt lat="48.05028" lon="6.74682">
        <ele>764</ele>
        <time>2017-12-26T23:45:09Z</time>
      </trkpt>
      <trkpt lat="48.05024" lon="6.74793">
        <ele>782</ele>
        <time>2017-12-26T23:46:09Z</time>
      </trkpt>
      <trkpt lat="48.04991" lon="6.74867">
        <ele>786</ele>
        <time>2017-12-26T23:47:09Z</time>
      </trkpt>
      <trkpt lat="48.0491" lon="6.75008">
        <ele>787</ele>
        <time>2017-12-26T23:48:09Z</time>
      </trkpt>
      <trkpt lat="48.04876" lon="6.75062">
        <ele>785</ele>
        <time>2017-12-26T23:49:09Z</time>
      </trkpt>
      <trkpt lat="48.04842" lon="6.75092">
        <ele>785</ele>
        <time>2017-12-26T23:50:09Z</time>
      </trkpt>
      <trkpt lat="48.0481" lon="6.75139">
        <ele>782</ele>
        <time>2017-12-26T23:51:09Z</time>
      </trkpt>
      <trkpt lat="48.04787" lon="6.75166">
        <ele>780</ele>
        <time>2017-12-26T23:52:09Z</time>
      </trkpt>
      <trkpt lat="48.04751" lon="6.75204">
        <ele>788</ele>
        <time>2017-12-26T23:53:09Z</time>
      </trkpt>
      <trkpt lat="48.04728" lon="6.75222">
        <ele>780</ele>
        <time>2017-12-26T23:54:09Z</time>
      </trkpt>
      <trkpt lat="48.0468" lon="6.75235">
        <ele>775</ele>
        <time>2017-12-26T23:55:09Z</time>
      </trkpt>
      <trkpt lat="48.04654" lon="6.75283">
        <ele>775</ele>
        <time>2017-12-26T23:56:09Z</time>
      </trkpt>
      <trkpt lat="48.04635" lon="6.75366">
        <ele>786</ele>
        <time>2017-12-26T23:57:09Z</time>
      </trkpt>
      <trkpt lat="48.04544" lon="6.75481">
        <ele>787</ele>
        <time>2017-12-26T23:58:09Z</time>
      </trkpt>
      <trkpt lat="48.04488" lon="6.75565">
        <ele>788</ele>
        <time>2017-12-26T23:59:09Z</time>
      </trkpt>
      <trkpt lat="48.04458" lon="6.7561">
        <ele>792</ele>
        <time>2017-12-27T00:00:09Z</time>
      </trkpt>
      <trkpt lat="48.044" lon="6.7568">
        <ele>793</ele>
        <time>2017-12-27T00:01:09Z</time>
      </trkpt>
      <trkpt lat="48.04354" lon="6.75708">
        <ele>792</ele>
        <time>2017-12-27T00:02:09Z</time>
      </trkpt>
      <trkpt lat="48.04295" lon="6.75823">
        <ele>794</ele>
        <time>2017-12-27T00:03:09Z</time>
      </trkpt>
      <trkpt lat="48.04255" lon="6.75896">
        <ele>805</ele>
        <time>2017-12-27T00:04:09Z</time>
      </trkpt>
      <trkpt lat="48.04174" lon="6.75996">
        <ele>807</ele>
        <time>2017-12-27T00:05:09Z</time>
      </trkpt>
      <trkpt lat="48.04141" lon="6.76151">
        <ele>817</ele>
        <time>2017-12-27T00:06:09Z</time>
      </trkpt>
      <trkpt lat="48.04159" lon="6.76336">
        <ele>826</ele>
        <time>2017-12-27T00:07:09Z</time>
      </trkpt>
      <trkpt lat="48.04184" lon="6.76473">
        <ele>834</ele>
        <time>2017-12-27T00:08:09Z</time>
      </trkpt>
      <trkpt lat="48.0417" lon="6.76773">
        <ele>848</ele>
        <time>2017-12-27T00:09:09Z</time>
      </trkpt>
      <trkpt lat="48.0412" lon="6.76928">
        <ele>851</ele>
        <time>2017-12-27T00:10:09Z</time>
      </trkpt>
      <trkpt lat="48.0409" lon="6.77125">
        <ele>860</ele>
        <time>2017-12-27T00:11:09Z</time>
      </trkpt>
      <trkpt lat="48.04117" lon="6.7726">
        <ele>865</ele>
        <time>2017-12-27T00:12:09Z</time>
      </trkpt>
      <trkpt lat="48.04107" lon="6.77303">
        <ele>866</ele>
        <time>2017-12-27T00:13:09Z</time>
      </trkpt>
      <trkpt lat="48.04127" lon="6.77303">
        <ele>866</ele>
        <time>2017-12-27T00:14:09Z</time>
      </trkpt>
      <trkpt lat="48.04126" lon="6.77387">
        <ele>874</ele>
        <time>2017-12-27T00:15:09Z</time>
      </trkpt>
      <trkpt lat="48.04089" lon="6.77528">
        <ele>886</ele>
        <time>2017-12-27T00:16:09Z</time>
      </trkpt>
      <trkpt lat="48.04075" lon="6.77587">
        <ele>883</ele>
        <time>2017-12-27T00:17:09Z</time>
      </trkpt>
      <trkpt lat="48.04059" lon="6.77687">
        <ele>889</ele>
        <time>2017-12-27T00:18:09Z</time>
      </trkpt>
      <trkpt lat="48.04021" lon="6.77816">
        <ele>894</ele>
        <time>2017-12-27T00:19:09Z</time>
      </trkpt>
      <trkpt lat="48.03977" lon="6.77864">
        <ele>888</ele>
        <time>2017-12-27T00:20:09Z</time>
      </trkpt>
      <trkpt lat="48.03927" lon="6.78002">
        <ele>893</ele>
        <time>2017-12-27T00:21:09Z</time>
      </trkpt>
      <trkpt lat="48.03898" lon="6.78202">
        <ele>893</ele>
        <time>2017-12-27T00:22:09Z</time>
      </trkpt>
      <trkpt lat="48.03863" lon="6.78273">
        <ele>891</ele>
        <time>2017-12-27T00:23:09Z</time>
      </trkpt>
      <trkpt lat="48.03868" lon="6.78327">
        <ele>893</ele>
        <time>2017-12-27T00:24:09Z</time>
      </trkpt>
      <trkpt lat="48.03882" lon="6.78531">
        <ele>894</ele>
        <time>2017-12-27T00:25:09Z</time>
      </trkpt>
      <trkpt lat="48.03938" lon="6.78683">
        <ele>908</ele>
        <time>2017-12-27T00:26:09Z</time>
      </trkpt>
      <trkpt lat="48.03973" lon="6.78869">
        <ele>909</ele>
        <time>2017-12-27T00:27:09Z</time>
      </trkpt>
      <trkpt lat="48.03991" lon="6.79082">
        <ele>899</ele>
        <time>2017-12-27T00:28:09Z</time>
      </trkpt>
      <trkpt lat="48.04059" lon="6.79183">
        <ele>901</ele>
        <time>2017-12-27T00:29:09Z</time>
      </trkpt>
      <trkpt lat="48.0411" lon="6.79426">
        <ele>893</ele>
        <time>2017-12-27T00:30:09Z</time>
      </trkpt>
      <trkpt lat="48.04121" lon="6.79633">
        <ele>882</ele>
        <time>2017-12-27T00:31:09Z</time>
      </trkpt>
      <trkpt lat="48.04107" lon="6.79705">
        <ele>883</ele>
        <time>2017-12-27T00:32:09Z</time>
      </trkpt>
      <trkpt lat="48.04081" lon="6.79761">
        <ele>867</ele>
        <time>2017-12-27T00:33:09Z</time>
      </trkpt>
      <trkpt lat="48.04101" lon="6.79908">
        <ele>894</ele>
        <time>2017-12-27T00:34:09Z</time>
      </trkpt>
      <trkpt lat="48.04181" lon="6.80032">
        <ele>916</ele>
        <time>2017-12-27T00:35:09Z</time>
      </trkpt>
      <trkpt lat="48.04278" lon="6.80252">
        <ele>901</ele>
        <time>2017-12-27T00:36:09Z</time>
      </trkpt>
      <trkpt lat="48.04344" lon="6.80315">
        <ele>909</ele>
        <time>2017-12-27T00:37:09Z</time>
      </trkpt>
      <trkpt lat="48.04375" lon="6.80301">
        <ele>915</ele>
        <time>2017-12-27T00:38:09Z</time>
      </trkpt>
      <trkpt lat="48.04407" lon="6.80289">
        <ele>918</ele>
        <time>2017-12-27T00:39:09Z</time>
      </trkpt>
      <trkpt lat="48.04424" lon="6.80252">
        <ele>930</ele>
        <time>2017-12-27T00:40:09Z</time>
      </trkpt>
      <trkpt lat="48.04461" lon="6.80211">
        <ele>943</ele>
        <time>2017-12-27T00:41:09Z</time>
      </trkpt>
      <trkpt lat="48.04485" lon="6.8019">
        <ele>946</ele>
        <time>2017-12-27T00:42:09Z</time>
      </trkpt>
      <trkpt lat="48.04513" lon="6.80195">
        <ele>943</ele>
        <time>2017-12-27T00:43:09Z</time>
      </trkpt>
      <trkpt lat="48.04549" lon="6.80199">
        <ele>940</ele>
        <time>2017-12-27T00:44:09Z</time>
      </trkpt>
      <trkpt lat="48.04596" lon="6.80211">
        <ele>934</ele>
        <time>2017-12-27T00:45:09Z</time>
      </trkpt>
      <trkpt lat="48.04627" lon="6.80212">
        <ele>933</ele>
        <time>2017-12-27T00:46:09Z</time>
      </trkpt>
      <trkpt lat="48.0465" lon="6.80242">
        <ele>933</ele>
        <time>2017-12-27T00:47:09Z</time>
      </trkpt>
      <trkpt lat="48.04667" lon="6.80254">
        <ele>935</ele>
        <time>2017-12-27T00:48:09Z</time>
      </trkpt>
      <trkpt lat="48.04677" lon="6.8026">
        <ele>936</ele>
        <time>2017-12-27T00:49:09Z</time>
      </trkpt>
      <trkpt lat="48.04685" lon="6.80275">
        <ele>937</ele>
        <time>2017-12-27T00:50:09Z</time>
      </trkpt>
      <trkpt lat="48.04714" lon="6.8024">
        <ele>934</ele>
        <time>2017-12-27T00:51:09Z</time>
      </trkpt>
      <trkpt lat="48.04809" lon="6.80204">
        <ele>935</ele>
        <time>2017-12-27T00:52:09Z</time>
      </trkpt>
      <trkpt lat="48.04827" lon="6.80187">
        <ele>933</ele>
        <time>2017-12-27T00:53:09Z</time>
      </trkpt>
      <trkpt lat="48.04847" lon="6.80134">
        <ele>921</ele>
        <time>2017-12-27T00:54:09Z</time>
      </trkpt>
      <trkpt lat="48.04887" lon="6.80117">
        <ele>918</ele>
        <time>2017-12-27T00:55:09Z</time>
      </trkpt>
      <trkpt lat="48.04952" lon="6.80076">
        <ele>903</ele>
        <time>2017-12-27T00:56:09Z</time>
      </trkpt>
      <trkpt lat="48.04957" lon="6.80057">
        <ele>902</ele>
        <time>2017-12-27T00:57:09Z</time>
      </trkpt>
      <trkpt lat="48.04926" lon="6.80025">
        <ele>898</ele>
        <time>2017-12-27T00:58:09Z</time>
      </trkpt>
      <trkpt lat="48.04999" lon="6.79946">
        <ele>881</ele>
        <time>2017-12-27T00:59:09Z</time>
      </trkpt>
      <trkpt lat="48.05086" lon="6.79895">
        <ele>856</ele>
        <time>2017-12-27T01:00:09Z</time>
      </trkpt>
      <trkpt lat="48.05159" lon="6.79873">
        <ele>851</ele>
        <time>2017-12-27T01:01:09Z</time>
      </trkpt>
      <trkpt lat="48.05214" lon="6.7982">
        <ele>843</ele>
        <time>2017-12-27T01:02:09Z</time>
      </trkpt>
      <trkpt lat="48.05253" lon="6.79711">
        <ele>843</ele>
        <time>2017-12-27T01:03:09Z</time>
      </trkpt>
      <trkpt lat="48.05282" lon="6.79635">
        <ele>835</ele>
        <time>2017-12-27T01:04:09Z</time>
      </trkpt>
      <trkpt lat="48.05264" lon="6.79467">
        <ele>810</ele>
        <time>2017-12-27T01:05:09Z</time>
      </trkpt>
      <trkpt lat="48.05361" lon="6.79261">
        <ele>786</ele>
        <time>2017-12-27T01:06:09Z</time>
      </trkpt>
      <trkpt lat="48.05356" lon="6.79156">
        <ele>777</ele>
        <time>2017-12-27T01:07:09Z</time>
      </trkpt>
      <trkpt lat="48.05455" lon="6.78979">
        <ele>759</ele>
        <time>2017-12-27T01:08:09Z</time>
      </trkpt>
      <trkpt lat="48.05498" lon="6.78853">
        <ele>749</ele>
        <time>2017-12-27T01:09:09Z</time>
      </trkpt>
      <trkpt lat="48.05533" lon="6.78814">
        <ele>741</ele>
        <time>2017-12-27T01:10:09Z</time>
      </trkpt>
      <trkpt lat="48.05558" lon="6.78737">
        <ele>735</ele>
        <time>2017-12-27T01:11:09Z</time>
      </trkpt>
      <trkpt lat="48.05608" lon="6.78699">
        <ele>726</ele>
        <time>2017-12-27T01:12:09Z</time>
      </trkpt>
      <trkpt lat="48.05645" lon="6.78573">
        <ele>712</ele>
        <time>2017-12-27T01:13:09Z</time>
      </trkpt>
      <trkpt lat="48.05659" lon="6.78501">
        <ele>706</ele>
        <time>2017-12-27T01:14:09Z</time>
      </trkpt>
      <trkpt lat="48.0565" lon="6.7843">
        <ele>703</ele>
        <time>2017-12-27T01:15:09Z</time>
      </trkpt>
      <trkpt lat="48.05655" lon="6.78385">
        <ele>705</ele>
        <time>2017-12-27T01:16:09Z</time>
      </trkpt>
      <trkpt lat="48.05724" lon="6.78298">
        <ele>706</ele>
        <time>2017-12-27T01:17:09Z</time>
      </trkpt>
      <trkpt lat="48.05732" lon="6.78274">
        <ele>708</ele>
        <time>2017-12-27T01:18:09Z</time>
      </trkpt>
      <trkpt lat="48.05786" lon="6.7828">
        <ele>710</ele>
        <time>2017-12-27T01:19:09Z</time>
      </trkpt>
      <trkpt lat="48.05805" lon="6.78251">
        <ele>714</ele>
        <time>2017-12-27T01:20:09Z</time>
      </trkpt>
      <trkpt lat="48.0601" lon="6.78227">
        <ele>771</ele>
        <time>2017-12-27T01:21:09Z</time>
      </trkpt>
      <trkpt lat="48.06053" lon="6.78198">
        <ele>778</ele>
        <time>2017-12-27T01:22:09Z</time>
      </trkpt>
      <trkpt lat="48.06122" lon="6.7813">
        <ele>794</ele>
        <time>2017-12-27T01:23:09Z</time>
      </trkpt>
      <trkpt lat="48.06116" lon="6.78098">
        <ele>800</ele>
        <time>2017-12-27T01:24:09Z</time>
      </trkpt>
      <trkpt lat="48.06109" lon="6.7807">
        <ele>819</ele>
        <time>2017-12-27T01:25:09Z</time>
      </trkpt>
      <trkpt lat="48.06105" lon="6.78026">
        <ele>826</ele>
        <time>2017-12-27T01:26:09Z</time>
      </trkpt>
      <trkpt lat="48.06198" lon="6.77922">
        <ele>833</ele>
        <time>2017-12-27T01:27:09Z</time>
      </trkpt>
      <trkpt lat="48.06269" lon="6.77816">
        <ele>847</ele>
        <time>2017-12-27T01:28:09Z</time>
      </trkpt>
      <trkpt lat="48.06294" lon="6.77651">
        <ele>859</ele>
        <time>2017-12-27T01:29:09Z</time>
      </trkpt>
      <trkpt lat="48.06335" lon="6.77556">
        <ele>850</ele>
        <time>2017-12-27T01:30:09Z</time>
      </trkpt>
      <trkpt lat="48.06379" lon="6.77511">
        <ele>851</ele>
        <time>2017-12-27T01:31:09Z</time>
      </trkpt>
      <trkpt lat="48.06462" lon="6.77426">
        <ele>851</ele>
        <time>2017-12-27T01:32:09Z</time>
      </trkpt>
      <trkpt lat="48.06531" lon="6.77396">
        <ele>854</ele>
        <time>2017-12-27T01:33:09Z</time>
      </trkpt>
      <trkpt lat="48.0659" lon="6.77355">
        <ele>847</ele>
        <time>2017-12-27T01:34:09Z</time>
      </trkpt>
      <trkpt lat="48.06625" lon="6.77271">
        <ele>849</ele>
        <time>2017-12-27T01:35:09Z</time>
      </trkpt>
      <trkpt lat="48.06767" lon="6.76956">
        <ele>820</ele>
        <time>2017-12-27T01:36:09Z</time>
      </trkpt>
      <trkpt lat="48.06844" lon="6.76794">
        <ele>810</ele>
        <time>2017-12-27T01:37:09Z</time>
      </trkpt>
      <trkpt lat="48.06795" lon="6.76706">
        <ele>803</ele>
        <time>2017-12-27T01:38:09Z</time>
      </trkpt>
      <trkpt lat="48.06843" lon="6.76606">
        <ele>798</ele>
        <time>2017-12-27T01:39:09Z</time>
      </trkpt>
      <trkpt lat="48.06889" lon="6.7656">
        <ele>795</ele>
        <time>2017-12-27T01:40:09Z</time>
      </trkpt>
      <trkpt lat="48.06914" lon="6.76517">
        <ele>793</ele>
        <time>2017-12-27T01:41:09Z</time>
      </trkpt>
      <trkpt lat="48.06967" lon="6.76433">
        <ele>794</ele>
        <time>2017-12-27T01:42:09Z</time>
      </trkpt>
      <trkpt lat="48.0701" lon="6.7636">
        <ele>790</ele>
        <time>2017-12-27T01:43:09Z</time>
      </trkpt>
      <trkpt lat="48.0703" lon="6.76338">
        <ele>790</ele>
        <time>2017-12-27T01:44:09Z</time>
      </trkpt>
      <trkpt lat="48.07081" lon="6.76268">
        <ele>774</ele>
        <time>2017-12-27T01:45:09Z</time>
      </trkpt>
      <trkpt lat="48.07126" lon="6.76225">
        <ele>768</ele>
        <time>2017-12-27T01:46:09Z</time>
      </trkpt>
      <trkpt lat="48.07175" lon="6.76163">
        <ele>757</ele>
        <time>2017-12-27T01:47:09Z</time>
      </trkpt>
      <trkpt lat="48.07283" lon="6.7608">
        <ele>739</ele>
        <time>2017-12-27T01:48:09Z</time>
      </trkpt>
      <trkpt lat="48.0738" lon="6.761">
        <ele>746</ele>
        <time>2017-12-27T01:49:09Z</time>
      </trkpt>
      <trkpt lat="48.07388" lon="6.76072">
        <ele>739</ele>
        <time>2017-12-27T01:50:09Z</time>
      </trkpt>
      <trkpt lat="48.07251" lon="6.75955">
        <ele>723</ele>
        <time>2017-12-27T01:51:09Z</time>
      </trkpt>
      <trkpt lat="48.07257" lon="6.75931">
        <ele>721</ele>
        <time>2017-12-27T01:52:09Z</time>
      </trkpt>
      <trkpt lat="48.07291" lon="6.75918">
        <ele>722</ele>
        <time>2017-12-27T01:53:09Z</time>
      </trkpt>
      <trkpt lat="48.07318" lon="6.75899">
        <ele>716</ele>
        <time>2017-12-27T01:54:09Z</time>
      </trkpt>
      <trkpt lat="48.07285" lon="6.75846">
        <ele>712</ele>
        <time>2017-12-27T01:55:09Z</time>
      </trkpt>
      <trkpt lat="48.07236" lon="6.75809">
        <ele>704</ele>
        <time>2017-12-27T01:56:09Z</time>
      </trkpt>
      <trkpt lat="48.07258" lon="6.7577">
        <ele>701</ele>
        <time>2017-12-27T01:57:09Z</time>
      </trkpt>
      <trkpt lat="48.07336" lon="6.75681">
        <ele>690</ele>
        <time>2017-12-27T01:58:09Z</time>
      </trkpt>
      <trkpt lat="48.0736" lon="6.75653">
        <ele>682</ele>
        <time>2017-12-27T01:59:09Z</time>
      </trkpt>
      <trkpt lat="48.07376" lon="6.75634">
        <ele>680</ele>
        <time>2017-12-27T02:00:09Z</time>
      </trkpt>
      <trkpt lat="48.07378" lon="6.75625">
        <ele>679</ele>
        <time>2017-12-27T02:01:09Z</time>
      </trkpt>
      <trkpt lat="48.07459" lon="6.7559">
        <ele>675</ele>
        <time>2017-12-27T02:02:09Z</time>
      </trkpt>
      <trkpt lat="48.07492" lon="6.75585">
        <ele>670</ele>
        <time>2017-12-27T02:03:09Z</time>
      </trkpt>
      <trkpt lat="48.07556" lon="6.75576">
        <ele>657</ele>
        <time>2017-12-27T02:04:09Z</time>
      </trkpt>
      <trkpt lat="48.07629" lon="6.75614">
        <ele>665</ele>
        <time>2017-12-27T02:05:09Z</time>
      </trkpt>
      <trkpt lat="48.07698" lon="6.75661">
        <ele>656</ele>
        <time>2017-12-27T02:06:09Z</time>
      </trkpt>
      <trkpt lat="48.07659" lon="6.75609">
        <ele>660</ele>
        <time>2017-12-27T02:07:09Z</time>
      </trkpt>
      <trkpt lat="48.07706" lon="6.75619">
        <ele>650</ele>
        <time>2017-12-27T02:08:09Z</time>
      </trkpt>
      <trkpt lat="48.07738" lon="6.75637">
        <ele>649</ele>
        <time>2017-12-27T02:09:09Z</time>
      </trkpt>
      <trkpt lat="48.07792" lon="6.75531">
        <ele>625</ele>
        <time>2017-12-27T02:10:09Z</time>
      </trkpt>
      <trkpt lat="48.07839" lon="6.75438">
        <ele>616</ele>
        <time>2017-12-27T02:11:09Z</time>
      </trkpt>
      <trkpt lat="48.07783" lon="6.75436">
        <ele>615</ele>
        <time>2017-12-27T02:12:09Z</time>
      </trkpt>
      <trkpt lat="48.07726" lon="6.75418">
        <ele>612</ele>
        <time>2017-12-27T02:13:09Z</time>
      </trkpt>
      <trkpt lat="48.07684" lon="6.75382">
        <ele>603</ele>
        <time>2017-12-27T02:14:09Z</time>
      </trkpt>
      <trkpt lat="48.07989" lon="6.75011">
        <ele>552</ele>
        <time>2017-12-27T02:15:09Z</time>
      </trkpt>
      <trkpt lat="48.0802" lon="6.74995">
        <ele>546</ele>
        <time>2017-12-27T02:16:09Z</time>
      </trkpt>
      <trkpt lat="48.08044" lon="6.74935">
        <ele>545</ele>
        <time>2017-12-27T02:17:09Z</time>
      </trkpt>
      <trkpt lat="48.08074" lon="6.74861">
        <ele>545</ele>
        <time>2017-12-27T02:18:09Z</time>
      </trkpt>
      <trkpt lat="48.08098" lon="6.7484">
        <ele>548</ele>
        <time>2017-12-27T02:19:09Z</time>
      </trkpt>
      <trkpt lat="48.08099" lon="6.7475">
        <ele>545</ele>
        <time>2017-12-27T02:20:09Z</time>
      </trkpt>
      <trkpt lat="48.08155" lon="6.74706">
        <ele>550</ele>
        <time>2017-12-27T02:21:09Z</time>
      </trkpt>
      <trkpt lat="48.08216" lon="6.74634">
        <ele>564</ele>
        <time>2017-12-27T02:22:09Z</time>
      </trkpt>
      <trkpt lat="48.08232" lon="6.74607">
        <ele>566</ele>
        <time>2017-12-27T02:23:09Z</time>
      </trkpt>
      <trkpt lat="48.08276" lon="6.74546">
        <ele>583</ele>
        <time>2017-12-27T02:24:09Z</time>
      </trkpt>
      <trkpt lat="48.08298" lon="6.74585">
        <ele>586</ele>
        <time>2017-12-27T02:25:09Z</time>
      </trkpt>
      <trkpt lat="48.08294" lon="6.74506">
        <ele>586</ele>
        <time>2017-12-27T02:26:09Z</time>
      </trkpt>
      <trkpt lat="48.0829" lon="6.74456">
        <ele>592</ele>
        <time>2017-12-27T02:27:09Z</time>
      </trkpt>
      <trkpt lat="48.08287" lon="6.74433">
        <ele>592</ele>
        <time>2017-12-27T02:28:09Z</time>
      </trkpt>
      <trkpt lat="48.0827" lon="6.74383">
        <ele>597</ele>
        <time>2017-12-27T02:29:09Z</time>
      </trkpt>
      <trkpt lat="48.0826" lon="6.74348">
        <ele>597</ele>
        <time>2017-12-27T02:30:09Z</time>
      </trkpt>
    </trkseg>
  </trk>
</gpx>